Terminal Aerodrome Forecast
Issued by NWS Grand Junction, CO

Home | Current Version | Previous Version | Text Only | Print | Product List | Glossary On
Versions: 1 2 3 4 5 6 7 8 9 10 11 12 13 14 15 16 17 18 19 20 21
000
FTUS45 KGJT 271140
TAFGJT
TAF
KGJT 271140Z 2712/2812 VRB03KT P6SM VCSH BKN080 BKN130
     FM271900 30007KT P6SM VCTS SCT100CB BKN250
     FM280100 33006KT P6SM SCT200
     FM280400 03004KT P6SM SCT200
     FM280600 10004KT P6SM SCT200=

USA.gov is the U.S. government's official web portal to all federal, state and local government web resources and services.